Shenandoah National Park, VA

8:12 AM EDT op 30 oktober 2014 (GMT -0400)
Culpeper Regional | Change Station
CLOSE
Current Station
Luchthaven
Location: Culpeper,
Geometrische hoogte: 312 ft
Nabije weerstations

Hoogte 312 ft 38.53 °N, 77.86 °W | Updated 17 minutes ago

Helder
Helder
39 °F
Voelt als 39 °F
N
0
Wind Variabel Wind van noord

Vandaag
Hoog -- | Laag -- °F
--% Kans op neerslag
Gisteren
Hoog -- | Laag -- °F
Precip. -- inches
7:36 AM 6:14 PM
Wassende halvemaan, 43% visible
Druk 30.06 inches
Zicht 10.0 mijlen
Wolken Helder
Dauwpunt 39 °F
Vochtigheid 100%
Neerslag 0.00 inches
Dikte sneeuw Niet beschikbaar.
UV 0 van de 12
Pollen .80 van de 12
Luchtkwaliteit Niet beschikbaar.
Flu Activity Niet beschikbaar.
METAR KCJR 301155Z AUTO 00000KT 10SM CLR 04/04 A3006 RMK AO2 TSNO

More Conditions Fewer Conditions

Druk 30.06 inches
Zicht 10.0 mijlen
Wolken Helder
Dauwpunt 39 °F
Vochtigheid 100%
Neerslag 0.00 inches
Dikte sneeuw Niet beschikbaar.
UV 0 van de 12
Pollen .80 van de 12
Luchtkwaliteit Niet beschikbaar.
Flu Activity Niet beschikbaar.
METAR KCJR 301155Z AUTO 00000KT 10SM CLR 04/04 A3006 RMK AO2 TSNO

More Conditions Fewer Conditions

10-Day Weather Forecast

Almanac

Astronomie

Oct. 30, 2014 Opkomst Ondergang
Werkelijke tijd
Burgerlijke schemering
Nautische schemering
Astronomische schemering
Maan
Golflengte van het zichtbare licht
Daglengte
Tomorrow will be .
, % of the Moon is Illuminated

Extremen vandaag

State Highs State Lows

Community

WunderPhotos

Upload Photos

1,766,349 foto’s ge-upload!

WunderBlogs® & News

Nearby

Luchtkwaliteit

  Luchtkwaliteit LK-index Verontreinigende stof
Not available.

Dikte sneeuw

Station Depth Geometrische hoogte

Aardbevingen

Stad Distance Mag. Time & Date
Minimum magnitude displayed is 2.5.

Watertemperatuur langs de kust

Plaats Temperatuur

Nabije weerstations